sensor_id;sensor_type;location;lat;lon;timestamp;pressure;altitude;pressure_sealevel;temperature;humidity
38227;BME280;24026;49.446;8.576;2023-07-31T00:00:43;100483.56;;;23.15;46.02
38227;BME280;24026;49.446;8.576;2023-07-31T00:03:04;100487.38;;;23.13;46.04
38227;BME280;24026;49.446;8.576;2023-07-31T00:05:25;100490.91;;;23.14;46.40
38227;BME280;24026;49.446;8.576;2023-07-31T00:07:45;100489.31;;;23.13;46.25
38227;BME280;24026;49.446;8.576;2023-07-31T00:10:06;100483.09;;;23.12;46.20
38227;BME280;24026;49.446;8.576;2023-07-31T00:12:26;100486.59;;;23.13;46.33
38227;BME280;24026;49.446;8.576;2023-07-31T00:14:47;100483.09;;;23.12;46.38
38227;BME280;24026;49.446;8.576;2023-07-31T00:17:07;100481.50;;;23.11;46.13
38227;BME280;24026;49.446;8.576;2023-07-31T00:19:28;100480.69;;;23.11;46.52
38227;BME280;24026;49.446;8.576;2023-07-31T00:21:48;100479.91;;;23.10;46.35
38227;BME280;24026;49.446;8.576;2023-07-31T00:24:09;100477.22;;;23.10;46.48
38227;BME280;24026;49.446;8.576;2023-07-31T00:26:29;100474.50;;;23.10;46.56
38227;BME280;24026;49.446;8.576;2023-07-31T00:28:49;100477.22;;;23.10;46.54
38227;BME280;24026;49.446;8.576;2023-07-31T00:31:10;100472.09;;;23.09;46.60
38227;BME280;24026;49.446;8.576;2023-07-31T00:33:31;100477.53;;;23.09;46.50
38227;BME280;24026;49.446;8.576;2023-07-31T00:35:51;100475.91;;;23.08;46.64
38227;BME280;24026;49.446;8.576;2023-07-31T00:38:12;100474.00;;;23.08;46.64
38227;BME280;24026;49.446;8.576;2023-07-31T00:40:36;100474.00;;;23.08;46.81
38227;BME280;24026;49.446;8.576;2023-07-31T00:42:57;100478.97;;;23.06;46.66
38227;BME280;24026;49.446;8.576;2023-07-31T00:45:17;100473.53;;;23.06;46.77
38227;BME280;24026;49.446;8.576;2023-07-31T00:47:38;100470.00;;;23.06;46.70
38227;BME280;24026;49.446;8.576;2023-07-31T00:49:59;100475.44;;;23.06;46.73
38227;BME280;24026;49.446;8.576;2023-07-31T00:52:20;100470.00;;;23.06;46.82
38227;BME280;24026;49.446;8.576;2023-07-31T00:54:40;100456.47;;;23.06;46.77
38227;BME280;24026;49.446;8.576;2023-07-31T00:57:01;100452.47;;;23.03;46.88
38227;BME280;24026;49.446;8.576;2023-07-31T00:59:22;100451.34;;;23.04;46.80
38227;BME280;24026;49.446;8.576;2023-07-31T01:01:42;100449.75;;;23.03;46.88
38227;BME280;24026;49.446;8.576;2023-07-31T01:04:03;100456.00;;;23.04;47.04
38227;BME280;24026;49.446;8.576;2023-07-31T01:06:42;100452.00;;;23.01;46.80
38227;BME280;24026;49.446;8.576;2023-07-31T01:09:22;100444.19;;;23.00;46.93
38227;BME280;24026;49.446;8.576;2023-07-31T01:11:53;100447.69;;;23.00;47.05
38227;BME280;24026;49.446;8.576;2023-07-31T01:14:16;100445.78;;;23.01;46.92
38227;BME280;24026;49.446;8.576;2023-07-31T01:16:36;100446.13;;;22.99;47.17
38227;BME280;24026;49.446;8.576;2023-07-31T01:18:57;100446.91;;;23.00;46.81
38227;BME280;24026;49.446;8.576;2023-07-31T01:21:29;100444.97;;;23.00;46.95
38227;BME280;24026;49.446;8.576;2023-07-31T01:24:14;100437.03;;;22.95;47.08
38227;BME280;24026;49.446;8.576;2023-07-31T01:26:40;100439.41;;;22.97;47.16
38227;BME280;24026;49.446;8.576;2023-07-31T01:29:15;100439.41;;;22.97;47.19
38227;BME280;24026;49.446;8.576;2023-07-31T01:31:39;100435.91;;;22.96;47.34
38227;BME280;24026;49.446;8.576;2023-07-31T01:34:01;100431.59;;;22.95;47.11
38227;BME280;24026;49.446;8.576;2023-07-31T01:36:22;100428.13;;;22.94;47.07
38227;BME280;24026;49.446;8.576;2023-07-31T01:38:43;100427.31;;;22.94;46.80
38227;BME280;24026;49.446;8.576;2023-07-31T01:41:03;100428.13;;;22.94;47.12
38227;BME280;24026;49.446;8.576;2023-07-31T01:43:23;100429.22;;;22.93;46.93
38227;BME280;24026;49.446;8.576;2023-07-31T01:45:44;100423.81;;;22.93;47.00
38227;BME280;24026;49.446;8.576;2023-07-31T01:48:05;100423.00;;;22.93;47.16
38227;BME280;24026;49.446;8.576;2023-07-31T01:50:25;100421.41;;;22.92;46.99
38227;BME280;24026;49.446;8.576;2023-07-31T01:52:45;100429.53;;;22.92;47.13
38227;BME280;24026;49.446;8.576;2023-07-31T01:55:06;100425.25;;;22.91;47.14
38227;BME280;24026;49.446;8.576;2023-07-31T01:57:26;100421.41;;;22.92;47.20
38227;BME280;24026;49.446;8.576;2023-07-31T01:59:47;100417.13;;;22.91;47.09
38227;BME280;24026;49.446;8.576;2023-07-31T02:02:07;100413.63;;;22.90;47.10
38227;BME280;24026;49.446;8.576;2023-07-31T02:04:28;100417.13;;;22.91;47.17
38227;BME280;24026;49.446;8.576;2023-07-31T02:06:48;100419.38;;;22.89;46.98
38227;BME280;24026;49.446;8.576;2023-07-31T02:09:08;100405.84;;;22.89;47.04
38227;BME280;24026;49.446;8.576;2023-07-31T02:11:29;100401.53;;;22.88;47.11
38227;BME280;24026;49.446;8.576;2023-07-31T02:13:49;100398.81;;;22.88;47.14
38227;BME280;24026;49.446;8.576;2023-07-31T02:16:09;100402.63;;;22.87;46.99
38227;BME280;24026;49.446;8.576;2023-07-31T02:18:30;100392.94;;;22.86;47.16
38227;BME280;24026;49.446;8.576;2023-07-31T02:20:51;100396.41;;;22.86;47.04
38227;BME280;24026;49.446;8.576;2023-07-31T02:23:11;100388.28;;;22.86;47.00
38227;BME280;24026;49.446;8.576;2023-07-31T02:25:32;100387.50;;;22.86;46.87
38227;BME280;24026;49.446;8.576;2023-07-31T02:27:52;100380.50;;;22.85;46.80
38227;BME280;24026;49.446;8.576;2023-07-31T02:30:12;100382.41;;;22.84;46.91
38227;BME280;24026;49.446;8.576;2023-07-31T02:32:33;100382.41;;;22.84;47.19
38227;BME280;24026;49.446;8.576;2023-07-31T02:34:53;100381.63;;;22.84;46.83
38227;BME280;24026;49.446;8.576;2023-07-31T02:37:13;100383.53;;;22.83;46.89
38227;BME280;24026;49.446;8.576;2023-07-31T02:39:34;100385.13;;;22.84;46.84
38227;BME280;24026;49.446;8.576;2023-07-31T02:41:54;100385.44;;;22.83;46.97
38227;BME280;24026;49.446;8.576;2023-07-31T02:44:15;100381.13;;;22.82;46.81
38227;BME280;24026;49.446;8.576;2023-07-31T02:46:35;100381.13;;;22.82;46.99
38227;BME280;24026;49.446;8.576;2023-07-31T02:48:55;100383.06;;;22.81;47.19
38227;BME280;24026;49.446;8.576;2023-07-31T02:51:16;100380.34;;;22.81;46.96
38227;BME280;24026;49.446;8.576;2023-07-31T02:53:37;100375.25;;;22.80;46.90
38227;BME280;24026;49.446;8.576;2023-07-31T02:55:57;100386.09;;;22.80;46.91
38227;BME280;24026;49.446;8.576;2023-07-31T02:58:17;100386.88;;;22.80;47.09
38227;BME280;24026;49.446;8.576;2023-07-31T03:00:42;100383.69;;;22.78;46.95
38227;BME280;24026;49.446;8.576;2023-07-31T03:03:03;100386.41;;;22.78;46.86
38227;BME280;24026;49.446;8.576;2023-07-31T03:05:23;100384.47;;;22.79;46.87
38227;BME280;24026;49.446;8.576;2023-07-31T03:07:43;100377.50;;;22.78;46.94
38227;BME280;24026;49.446;8.576;2023-07-31T03:10:04;100374.00;;;22.77;46.95
38227;BME280;24026;49.446;8.576;2023-07-31T03:12:25;100379.41;;;22.77;46.79
38227;BME280;24026;49.446;8.576;2023-07-31T03:14:45;100372.41;;;22.76;46.71
38227;BME280;24026;49.446;8.576;2023-07-31T03:17:06;100377.81;;;22.76;47.05
38227;BME280;24026;49.446;8.576;2023-07-31T03:19:27;100373.50;;;22.75;46.82
38227;BME280;24026;49.446;8.576;2023-07-31T03:21:47;100383.56;;;22.74;46.89
38227;BME280;24026;49.446;8.576;2023-07-31T03:24:07;100388.19;;;22.74;46.84
38227;BME280;24026;49.446;8.576;2023-07-31T03:26:28;100383.56;;;22.74;46.80
38227;BME280;24026;49.446;8.576;2023-07-31T03:28:50;100388.97;;;22.74;46.75
38227;BME280;24026;49.446;8.576;2023-07-31T03:31:10;100384.66;;;22.73;46.77
38227;BME280;24026;49.446;8.576;2023-07-31T03:33:31;100374.16;;;22.72;46.68
38227;BME280;24026;49.446;8.576;2023-07-31T03:35:52;100378.47;;;22.73;46.88
38227;BME280;24026;49.446;8.576;2023-07-31T03:38:12;100383.09;;;22.72;46.75
38227;BME280;24026;49.446;8.576;2023-07-31T03:40:33;100384.19;;;22.71;46.78
38227;BME280;24026;49.446;8.576;2023-07-31T03:42:53;100378.78;;;22.71;46.90
38227;BME280;24026;49.446;8.576;2023-07-31T03:45:13;100373.38;;;22.71;46.71
38227;BME280;24026;49.446;8.576;2023-07-31T03:47:34;100370.66;;;22.71;46.74
38227;BME280;24026;49.446;8.576;2023-07-31T03:49:54;100371.78;;;22.70;46.89
38227;BME280;24026;49.446;8.576;2023-07-31T03:52:15;100378.31;;;22.69;46.58
38227;BME280;24026;49.446;8.576;2023-07-31T03:54:36;100372.13;;;22.69;46.84
38227;BME280;24026;49.446;8.576;2023-07-31T03:56:56;100372.13;;;22.69;46.75
38227;BME280;24026;49.446;8.576;2023-07-31T03:59:16;100371.28;;;22.68;46.70
38227;BME280;24026;49.446;8.576;2023-07-31T04:01:37;100368.91;;;22.67;46.86
38227;BME280;24026;49.446;8.576;2023-07-31T04:03:57;100368.91;;;22.67;46.68
38227;BME280;24026;49.446;8.576;2023-07-31T04:06:17;100360.00;;;22.66;46.86
38227;BME280;24026;49.446;8.576;2023-07-31T04:08:38;100359.22;;;22.66;46.82
38227;BME280;24026;49.446;8.576;2023-07-31T04:10:58;100367.34;;;22.66;46.77
38227;BME280;24026;49.446;8.576;2023-07-31T04:13:19;100363.81;;;22.65;46.82
38227;BME280;24026;49.446;8.576;2023-07-31T04:15:39;100371.16;;;22.65;46.62
38227;BME280;24026;49.446;8.576;2023-07-31T04:18:00;100363.34;;;22.63;46.71
38227;BME280;24026;49.446;8.576;2023-07-31T04:20:20;100374.19;;;22.63;46.65
38227;BME280;24026;49.446;8.576;2023-07-31T04:22:40;100376.88;;;22.63;46.63
38227;BME280;24026;49.446;8.576;2023-07-31T04:25:01;100378.03;;;22.62;46.63
38227;BME280;24026;49.446;8.576;2023-07-31T04:27:21;100382.31;;;22.63;46.58
38227;BME280;24026;49.446;8.576;2023-07-31T04:29:42;100373.41;;;22.63;46.72
38227;BME280;24026;49.446;8.576;2023-07-31T04:32:04;100368.31;;;22.61;46.60
38227;BME280;24026;49.446;8.576;2023-07-31T04:34:25;100372.94;;;22.61;46.79
38227;BME280;24026;49.446;8.576;2023-07-31T04:36:45;100371.00;;;22.61;46.63
38227;BME280;24026;49.446;8.576;2023-07-31T04:39:05;100365.91;;;22.60;46.59
38227;BME280;24026;49.446;8.576;2023-07-31T04:41:26;100366.69;;;22.60;46.50
38227;BME280;24026;49.446;8.576;2023-07-31T04:43:46;100361.28;;;22.60;46.44
38227;BME280;24026;49.446;8.576;2023-07-31T04:46:06;100357.78;;;22.60;46.54
38227;BME280;24026;49.446;8.576;2023-07-31T04:48:27;100358.91;;;22.58;46.37
38227;BME280;24026;49.446;8.576;2023-07-31T04:50:47;100358.09;;;22.58;46.61
38227;BME280;24026;49.446;8.576;2023-07-31T04:53:08;100363.53;;;22.58;46.67
38227;BME280;24026;49.446;8.576;2023-07-31T04:55:29;100355.41;;;22.58;46.62
38227;BME280;24026;49.446;8.576;2023-07-31T04:57:50;100358.09;;;22.58;46.64
38227;BME280;24026;49.446;8.576;2023-07-31T05:00:10;100352.69;;;22.58;46.65
38227;BME280;24026;49.446;8.576;2023-07-31T05:02:31;100358.09;;;22.58;46.63
38227;BME280;24026;49.446;8.576;2023-07-31T05:04:52;100353.00;;;22.56;46.40
38227;BME280;24026;49.446;8.576;2023-07-31T05:07:12;100361.13;;;22.56;46.63
38227;BME280;24026;49.446;8.576;2023-07-31T05:09:32;100358.44;;;22.56;46.32
38227;BME280;24026;49.446;8.576;2023-07-31T05:11:53;100365.75;;;22.56;46.59
38227;BME280;24026;49.446;8.576;2023-07-31T05:14:13;100363.06;;;22.56;46.47
38227;BME280;24026;49.446;8.576;2023-07-31T05:16:34;100357.63;;;22.56;46.33
38227;BME280;24026;49.446;8.576;2023-07-31T05:18:54;100354.47;;;22.54;46.52
38227;BME280;24026;49.446;8.576;2023-07-31T05:21:15;100357.97;;;22.54;46.49
38227;BME280;24026;49.446;8.576;2023-07-31T05:23:37;100352.88;;;22.53;46.65
38227;BME280;24026;49.446;8.576;2023-07-31T05:26:03;100359.38;;;22.52;46.44
38227;BME280;24026;49.446;8.576;2023-07-31T05:28:24;100352.41;;;22.51;46.53
38227;BME280;24026;49.446;8.576;2023-07-31T05:30:44;100360.84;;;22.49;46.46
38227;BME280;24026;49.446;8.576;2023-07-31T05:33:04;100358.47;;;22.48;46.82
38227;BME280;24026;49.446;8.576;2023-07-31T05:35:25;100350.66;;;22.46;46.38
38227;BME280;24026;49.446;8.576;2023-07-31T05:37:45;100346.34;;;22.45;46.49
38227;BME280;24026;49.446;8.576;2023-07-31T05:40:06;100352.91;;;22.44;46.56
38227;BME280;24026;49.446;8.576;2023-07-31T05:42:26;100350.50;;;22.43;46.48
38227;BME280;24026;49.446;8.576;2023-07-31T05:44:47;100351.63;;;22.42;46.53
38227;BME280;24026;49.446;8.576;2023-07-31T05:47:07;100352.75;;;22.41;46.41
38227;BME280;24026;49.446;8.576;2023-07-31T05:49:28;100350.34;;;22.39;46.51
38227;BME280;24026;49.446;8.576;2023-07-31T05:51:48;100353.38;;;22.37;46.74
38227;BME280;24026;49.446;8.576;2023-07-31T05:54:08;100346.38;;;22.36;46.64
38227;BME280;24026;49.446;8.576;2023-07-31T05:56:29;100357.53;;;22.35;46.55
38227;BME280;24026;49.446;8.576;2023-07-31T05:58:49;100363.75;;;22.35;46.30
38227;BME280;24026;49.446;8.576;2023-07-31T06:01:10;100354.81;;;22.35;46.51
38227;BME280;24026;49.446;8.576;2023-07-31T06:03:31;100350.03;;;22.32;46.49
38227;BME280;24026;49.446;8.576;2023-07-31T06:05:51;100357.38;;;22.31;46.78
38227;BME280;24026;49.446;8.576;2023-07-31T06:08:11;100346.06;;;22.29;46.86
38227;BME280;24026;49.446;8.576;2023-07-31T06:10:32;100345.56;;;22.27;46.65
38227;BME280;24026;49.446;8.576;2023-07-31T06:12:52;100344.75;;;22.27;46.96
38227;BME280;24026;49.446;8.576;2023-07-31T06:15:14;100347.78;;;22.25;46.95
38227;BME280;24026;49.446;8.576;2023-07-31T06:17:38;100333.47;;;22.25;46.95
38227;BME280;24026;49.446;8.576;2023-07-31T06:20:03;100351.94;;;22.23;46.58
38227;BME280;24026;49.446;8.576;2023-07-31T06:22:25;100340.34;;;22.22;46.95
38227;BME280;24026;49.446;8.576;2023-07-31T06:24:46;100341.44;;;22.21;47.17
38227;BME280;24026;49.446;8.576;2023-07-31T06:27:06;100347.97;;;22.20;46.94
38227;BME280;24026;49.446;8.576;2023-07-31T06:29:27;100342.53;;;22.20;46.89
38227;BME280;24026;49.446;8.576;2023-07-31T06:31:49;100337.13;;;22.20;47.10
38227;BME280;24026;49.446;8.576;2023-07-31T06:34:10;100337.44;;;22.18;47.27
38227;BME280;24026;49.446;8.576;2023-07-31T06:36:30;100339.38;;;22.18;47.24
38227;BME280;24026;49.446;8.576;2023-07-31T06:38:53;100333.97;;;22.18;47.19
38227;BME280;24026;49.446;8.576;2023-07-31T06:41:14;100335.09;;;22.17;47.43
38227;BME280;24026;49.446;8.576;2023-07-31T06:43:34;100330.78;;;22.16;47.54
38227;BME280;24026;49.446;8.576;2023-07-31T06:45:54;100336.19;;;22.16;47.20
38227;BME280;24026;49.446;8.576;2023-07-31T06:48:15;100328.41;;;22.14;47.36
38227;BME280;24026;49.446;8.576;2023-07-31T06:50:35;100331.88;;;22.15;47.91
38227;BME280;24026;49.446;8.576;2023-07-31T06:52:57;100333.81;;;22.14;47.56
38227;BME280;24026;49.446;8.576;2023-07-31T06:55:19;100336.50;;;22.14;47.67
38227;BME280;24026;49.446;8.576;2023-07-31T06:57:41;100342.72;;;22.15;47.57
38227;BME280;24026;49.446;8.576;2023-07-31T07:00:02;100341.13;;;22.14;47.61
38227;BME280;24026;49.446;8.576;2023-07-31T07:02:25;100343.03;;;22.13;47.75
38227;BME280;24026;49.446;8.576;2023-07-31T07:04:46;100335.72;;;22.14;47.66
38227;BME280;24026;49.446;8.576;2023-07-31T07:07:07;100341.13;;;22.14;47.88
38227;BME280;24026;49.446;8.576;2023-07-31T07:09:28;100329.50;;;22.13;47.87
38227;BME280;24026;49.446;8.576;2023-07-31T07:11:48;100344.16;;;22.12;48.05
38227;BME280;24026;49.446;8.576;2023-07-31T07:14:09;100322.50;;;22.12;47.96
38227;BME280;24026;49.446;8.576;2023-07-31T07:16:31;100323.31;;;22.13;48.22
38227;BME280;24026;49.446;8.576;2023-07-31T07:18:52;100327.94;;;22.12;47.91
38227;BME280;24026;49.446;8.576;2023-07-31T07:21:15;100342.25;;;22.13;47.95
38227;BME280;24026;49.446;8.576;2023-07-31T07:23:38;100333.66;;;22.11;48.19
38227;BME280;24026;49.446;8.576;2023-07-31T07:26:00;100342.56;;;22.11;47.87
38227;BME280;24026;49.446;8.576;2023-07-31T07:28:21;100340.66;;;22.12;47.93
38227;BME280;24026;49.446;8.576;2023-07-31T07:30:41;100330.63;;;22.12;48.14
38227;BME280;24026;49.446;8.576;2023-07-31T07:33:02;100326.78;;;22.13;48.35
38227;BME280;24026;49.446;8.576;2023-07-31T07:35:22;100328.72;;;22.13;48.43
38227;BME280;24026;49.446;8.576;2023-07-31T07:37:43;100337.63;;;22.13;48.38
38227;BME280;24026;49.446;8.576;2023-07-31T07:40:03;100322.19;;;22.14;48.44
38227;BME280;24026;49.446;8.576;2023-07-31T07:42:24;100330.00;;;22.15;48.35
38227;BME280;24026;49.446;8.576;2023-07-31T07:44:45;100326.16;;;22.16;48.25
38227;BME280;24026;49.446;8.576;2023-07-31T07:47:05;100323.91;;;22.18;48.18
38227;BME280;24026;49.446;8.576;2023-07-31T07:49:26;100323.59;;;22.20;48.10
38227;BME280;24026;49.446;8.576;2023-07-31T07:51:47;100317.09;;;22.21;48.23
38227;BME280;24026;49.446;8.576;2023-07-31T07:54:08;100316.75;;;22.23;48.31
38227;BME280;24026;49.446;8.576;2023-07-31T07:56:28;100321.06;;;22.24;48.34
38227;BME280;24026;49.446;8.576;2023-07-31T07:58:50;100313.41;;;22.26;47.98
38227;BME280;24026;49.446;8.576;2023-07-31T08:01:10;100315.81;;;22.27;48.13
38227;BME280;24026;49.446;8.576;2023-07-31T08:03:30;100313.59;;;22.29;48.06
38227;BME280;24026;49.446;8.576;2023-07-31T08:05:51;100304.03;;;22.32;48.16
38227;BME280;24026;49.446;8.576;2023-07-31T08:08:15;100309.94;;;22.34;48.29
38227;BME280;24026;49.446;8.576;2023-07-31T08:10:36;100307.69;;;22.36;48.25
38227;BME280;24026;49.446;8.576;2023-07-31T08:12:56;100308.94;;;22.38;47.90
38227;BME280;24026;49.446;8.576;2023-07-31T08:15:17;100302.41;;;22.39;47.96
38227;BME280;24026;49.446;8.576;2023-07-31T08:17:37;100301.00;;;22.42;47.99
38227;BME280;24026;49.446;8.576;2023-07-31T08:19:57;100290.63;;;22.44;48.18
38227;BME280;24026;49.446;8.576;2023-07-31T08:22:18;100281.03;;;22.47;48.01
38227;BME280;24026;49.446;8.576;2023-07-31T08:24:39;100282.31;;;22.49;47.95
38227;BME280;24026;49.446;8.576;2023-07-31T08:26:59;100275.44;;;22.52;48.04
38227;BME280;24026;49.446;8.576;2023-07-31T08:29:19;100276.72;;;22.54;47.85
38227;BME280;24026;49.446;8.576;2023-07-31T08:31:40;100271.00;;;22.56;47.75
38227;BME280;24026;49.446;8.576;2023-07-31T08:34:00;100272.25;;;22.58;47.89
38227;BME280;24026;49.446;8.576;2023-07-31T08:36:21;100267.31;;;22.61;47.68
38227;BME280;24026;49.446;8.576;2023-07-31T08:38:41;100267.00;;;22.62;47.72
38227;BME280;24026;49.446;8.576;2023-07-31T08:41:05;100263.59;;;22.65;47.59
38227;BME280;24026;49.446;8.576;2023-07-31T08:43:26;100264.88;;;22.68;47.46
38227;BME280;24026;49.446;8.576;2023-07-31T08:45:47;100254.50;;;22.70;47.83
38227;BME280;24026;49.446;8.576;2023-07-31T08:48:08;100255.78;;;22.72;47.76
38227;BME280;24026;49.446;8.576;2023-07-31T08:50:30;100249.22;;;22.73;47.83
38227;BME280;24026;49.446;8.576;2023-07-31T08:52:51;100240.78;;;22.75;47.63
38227;BME280;24026;49.446;8.576;2023-07-31T08:55:12;100246.69;;;22.77;47.48
38227;BME280;24026;49.446;8.576;2023-07-31T08:57:35;100249.84;;;22.79;47.81
38227;BME280;24026;49.446;8.576;2023-07-31T08:59:55;100240.59;;;22.80;47.60
38227;BME280;24026;49.446;8.576;2023-07-31T09:02:18;100245.69;;;22.82;47.77
38227;BME280;24026;49.446;8.576;2023-07-31T09:04:41;100249.66;;;22.84;47.68
38227;BME280;24026;49.446;8.576;2023-07-31T09:07:03;100245.50;;;22.87;47.83
38227;BME280;24026;49.446;8.576;2023-07-31T09:09:24;100245.97;;;22.89;47.83
38227;BME280;24026;49.446;8.576;2023-07-31T09:11:44;100238.31;;;22.91;48.06
38227;BME280;24026;49.446;8.576;2023-07-31T09:14:06;100252.31;;;22.93;48.15
38227;BME280;24026;49.446;8.576;2023-07-31T09:16:29;100238.44;;;22.94;48.07
38227;BME280;24026;49.446;8.576;2023-07-31T09:18:54;100245.13;;;22.97;47.84
38227;BME280;24026;49.446;8.576;2023-07-31T09:21:16;100241.75;;;23.00;47.72
38227;BME280;24026;49.446;8.576;2023-07-31T09:23:44;100243.81;;;23.03;47.58
38227;BME280;24026;49.446;8.576;2023-07-31T09:26:05;100237.28;;;23.04;47.67
38227;BME280;24026;49.446;8.576;2023-07-31T09:28:31;100250.19;;;23.07;47.47
38227;BME280;24026;49.446;8.576;2023-07-31T09:30:51;100244.78;;;22.99;47.69
38227;BME280;24026;49.446;8.576;2023-07-31T09:33:12;100233.13;;;23.07;47.41
38227;BME280;24026;49.446;8.576;2023-07-31T09:35:34;100238.72;;;23.10;47.33
38227;BME280;24026;49.446;8.576;2023-07-31T09:38:05;100222.91;;;23.12;47.22
38227;BME280;24026;49.446;8.576;2023-07-31T09:40:31;100216.00;;;23.15;47.13
38227;BME280;24026;49.446;8.576;2023-07-31T09:42:51;100215.75;;;23.08;47.19
38227;BME280;24026;49.446;8.576;2023-07-31T09:45:12;100212.06;;;23.12;47.22
38227;BME280;24026;49.446;8.576;2023-07-31T09:47:36;100199.63;;;23.11;46.93
38227;BME280;24026;49.446;8.576;2023-07-31T09:49:56;100199.28;;;23.13;46.96
38227;BME280;24026;49.446;8.576;2023-07-31T09:52:18;100196.13;;;23.11;47.02
38227;BME280;24026;49.446;8.576;2023-07-31T09:54:38;100194.66;;;23.13;47.15
38227;BME280;24026;49.446;8.576;2023-07-31T09:57:00;100189.72;;;23.16;47.19
38227;BME280;24026;49.446;8.576;2023-07-31T09:59:21;100196.38;;;23.18;47.14
38227;BME280;24026;49.446;8.576;2023-07-31T10:01:44;100200.03;;;23.22;46.87
38227;BME280;24026;49.446;8.576;2023-07-31T10:04:07;100188.88;;;23.24;46.76
38227;BME280;24026;49.446;8.576;2023-07-31T10:06:29;100180.25;;;23.22;46.50
38227;BME280;24026;49.446;8.576;2023-07-31T10:08:51;100182.97;;;23.22;46.62
38227;BME280;24026;49.446;8.576;2023-07-31T10:11:13;100181.38;;;23.21;46.93
38227;BME280;24026;49.446;8.576;2023-07-31T10:13:34;100182.50;;;23.20;47.12
38227;BME280;24026;49.446;8.576;2023-07-31T10:15:58;100175.97;;;23.21;47.11
38227;BME280;24026;49.446;8.576;2023-07-31T10:18:19;100183.09;;;23.25;46.78
38227;BME280;24026;49.446;8.576;2023-07-31T10:20:40;100181.19;;;23.26;46.74
38227;BME280;24026;49.446;8.576;2023-07-31T10:23:01;100167.63;;;23.26;46.62
38227;BME280;24026;49.446;8.576;2023-07-31T10:25:22;100169.19;;;23.27;46.92
38227;BME280;24026;49.446;8.576;2023-07-31T10:27:52;100164.25;;;23.29;46.53
38227;BME280;24026;49.446;8.576;2023-07-31T10:30:27;100161.22;;;23.30;46.56
38227;BME280;24026;49.446;8.576;2023-07-31T10:32:48;100161.22;;;23.30;46.63
38227;BME280;24026;49.446;8.576;2023-07-31T10:35:11;100159.75;;;23.33;46.27
38227;BME280;24026;49.446;8.576;2023-07-31T10:37:42;100153.22;;;23.34;46.48
38227;BME280;24026;49.446;8.576;2023-07-31T10:40:10;100157.59;;;23.39;46.51
38227;BME280;24026;49.446;8.576;2023-07-31T10:42:34;100163.19;;;23.42;46.31
38227;BME280;24026;49.446;8.576;2023-07-31T10:45:00;100153.13;;;23.43;46.43
38227;BME280;24026;49.446;8.576;2023-07-31T10:47:22;100143.50;;;23.45;46.54
38227;BME280;24026;49.446;8.576;2023-07-31T10:49:48;100144.31;;;23.46;46.32
38227;BME280;24026;49.446;8.576;2023-07-31T10:52:11;100143.50;;;23.45;46.26
38227;BME280;24026;49.446;8.576;2023-07-31T10:54:33;100149.75;;;23.46;46.28
38227;BME280;24026;49.446;8.576;2023-07-31T10:56:53;100152.91;;;23.48;46.66
38227;BME280;24026;49.446;8.576;2023-07-31T10:59:14;100152.56;;;23.49;46.33
38227;BME280;24026;49.446;8.576;2023-07-31T11:01:54;100157.88;;;23.46;46.34
38227;BME280;24026;49.446;8.576;2023-07-31T11:04:25;100157.88;;;23.46;46.51
38227;BME280;24026;49.446;8.576;2023-07-31T11:06:58;100158.22;;;23.44;46.54
38227;BME280;24026;49.446;8.576;2023-07-31T11:09:18;100151.31;;;23.47;46.38
38227;BME280;24026;49.446;8.576;2023-07-31T11:11:39;100157.53;;;23.47;46.56
38227;BME280;24026;49.446;8.576;2023-07-31T11:13:59;100147.16;;;23.49;46.50
38227;BME280;24026;49.446;8.576;2023-07-31T11:16:21;100141.06;;;23.53;46.43
38227;BME280;24026;49.446;8.576;2023-07-31T11:18:44;100145.34;;;23.54;46.43
38227;BME280;24026;49.446;8.576;2023-07-31T11:21:07;100147.41;;;23.57;46.29
38227;BME280;24026;49.446;8.576;2023-07-31T11:23:27;100146.28;;;23.58;46.47
38227;BME280;24026;49.446;8.576;2023-07-31T11:25:47;100126.16;;;23.59;46.25
38227;BME280;24026;49.446;8.576;2023-07-31T11:28:13;100138.13;;;23.58;46.21
38227;BME280;24026;49.446;8.576;2023-07-31T11:30:34;100135.44;;;23.58;46.23
38227;BME280;24026;49.446;8.576;2023-07-31T11:32:55;100126.63;;;23.61;46.04
38227;BME280;24026;49.446;8.576;2023-07-31T11:35:16;100131.25;;;23.60;45.91
38227;BME280;24026;49.446;8.576;2023-07-31T11:37:43;100134.66;;;23.57;45.99
38227;BME280;24026;49.446;8.576;2023-07-31T11:40:04;100138.13;;;23.58;45.79
38227;BME280;24026;49.446;8.576;2023-07-31T11:42:25;100130.44;;;23.60;45.90
38227;BME280;24026;49.446;8.576;2023-07-31T11:44:46;100136.22;;;23.58;45.94
38227;BME280;24026;49.446;8.576;2023-07-31T11:47:08;100122.19;;;23.56;46.10
38227;BME280;24026;49.446;8.576;2023-07-31T11:49:29;100123.44;;;23.59;46.01
38227;BME280;24026;49.446;8.576;2023-07-31T11:51:50;100117.69;;;23.60;46.06
38227;BME280;24026;49.446;8.576;2023-07-31T11:54:10;100122.78;;;23.62;45.99
38227;BME280;24026;49.446;8.576;2023-07-31T11:56:33;100109.69;;;23.64;45.92
38227;BME280;24026;49.446;8.576;2023-07-31T11:58:57;100098.03;;;23.63;45.92
38227;BME280;24026;49.446;8.576;2023-07-31T12:01:19;100105.38;;;23.63;46.22
38227;BME280;24026;49.446;8.576;2023-07-31T12:03:41;100091.81;;;23.63;46.12
38227;BME280;24026;49.446;8.576;2023-07-31T12:06:04;100100.28;;;23.61;46.08
38227;BME280;24026;49.446;8.576;2023-07-31T12:08:24;100096.47;;;23.62;46.21
38227;BME280;24026;49.446;8.576;2023-07-31T12:10:45;100098.34;;;23.62;46.28
38227;BME280;24026;49.446;8.576;2023-07-31T12:13:12;100087.16;;;23.63;46.22
38227;BME280;24026;49.446;8.576;2023-07-31T12:15:40;100082.56;;;23.64;46.29
38227;BME280;24026;49.446;8.576;2023-07-31T12:18:14;100090.69;;;23.64;46.12
38227;BME280;24026;49.446;8.576;2023-07-31T12:20:34;100086.50;;;23.66;46.34